Airfield :
LOGIN :

Register | Disclaimer

   EN    FR    IT 

 










Legend :    VFR   Marginal VFR   IFR   Intensive IFR   Very Intensive IFR
Visi :
Ceiling :
>= 8 km
>= 3000ft
5 to 8 km
1000 to 3000 ft
1500m to 5 km
500 to 1000 ft
800 to 1500m
200 to 500 ft
< 800m
< 200 ft
Symbols :   Thunderstorms  Fog  Heavy snow  Heavy precipitations  Wind > 20 kt
SIGMETs :     Misc.  Thunderstorms  Icing  Turbulence  Mountain Waves  Volcanic Ashes






- Airport Elevation : 2031 ft


LEGT - Madrid Getafe

CURRENT METAR :
  • 021200Z 03004KT 330V070 9999 BKN023 BKN031 08/01 Q1013

EXPIRED METARs :
  • 021130Z 05004KT 010V090 9999 BKN024 BKN035 07/01 Q1014
  • 021100Z 04005KT 360V070 9999 BKN025 BKN046 07/01 Q1014
  • 021030Z 05005KT 360V080 9999 OVC025 06/01 Q1015
  • 021000Z 05004KT 020V080 9999 OVC027 06/01 Q1015
  • 020930Z 02006KT 9999 OVC026 06/01 Q1015

TAF TAF LEGT
Valid from the 02 at 12:00 until the 03 at 12:00 UTC


021100Z 0212/0312 VRB04KT 9999 BKN025 TX11/0215Z TN01/0307Z



MET'MAP, your aeronautical weather chart ! - Copyright ORBIFLY December 2007 - Disclaimer

ORBIFLY MET'MAP TEAM :

Programming & Development : Alexandra Zaïnal
Original concept : Baudouin d'Aumeries
Technical & hardware support : Manuel Goepfert
Assistance : Marc-Olivier Méhu




SOURCES & CREDITS :

   NOAA